Pitt Meadows, British Columbia

2:56 PM PST on December 19, 2014 (GMT -0800)
Pitt Meadows Chez Douglas | Change Station
CLOSE
Current Station
Personal Weather Station
Location: Pitt Meadows, BRITISH COLUMBIA
Elevation: 66 ft
Nearby Weather Stations

Elev 66 ft 49.22 °N, 122.69 °W | Updated 2 minutes ago

Light Rain
Light Rain
47.1 °F
Feels Like 47 °F
N
2.2
Wind Variable Wind from ENE

Today
High -- | Low -- °F
--% Chance of Precip.
Yesterday
High -- | Low -- °F
Precip. -- in
8:01 AM 4:13 PM
Waning Crescent, 6% visible
Pressure 29.92 in
Visibility 20.0 miles
Clouds Scattered Clouds 3000 ft
Overcast 6000 ft
Windchill 47 °F
Dew Point 46 °F
Humidity 94%
Rainfall 0.05 in
Snow Depth Not available.
UV 0 out of 12
Pollen Not available.
Air Quality Not available.
Flu Activity Not available.
SPECI CYXX 192226Z 18006KT 20SM -RA SCT030 OVC060 09/06 A2991 RMK SC4SC4 SLP131

More Conditions Fewer Conditions

Pressure 29.92 in
Visibility 20.0 miles
Clouds Scattered Clouds 3000 ft
Overcast 6000 ft
Windchill 47 °F
Dew Point 46 °F
Humidity 94%
Rainfall 0.05 in
Snow Depth Not available.
UV 0 out of 12
Pollen Not available.
Air Quality Not available.
Flu Activity Not available.
SPECI CYXX 192226Z 18006KT 20SM -RA SCT030 OVC060 09/06 A2991 RMK SC4SC4 SLP131

More Conditions Fewer Conditions

10-Day Weather Forecast

Almanac

Astronomy

Dec. 19, 2014 Rise Set
Actual Time
Civil Twilight
Nautical Twilight
Astronomical Twilight
Moon
Length of Visible Light
Length of Day
Tomorrow will be .
, % of the Moon is Illuminated

Today's Extremes

Country Highs Country Lows

Community

WunderPhotos

Upload Photos

1,779,071 photos uploaded!

WunderBlogs® & News

Nearby

Air Quality

  Air Quality AQ Index Pollutant
Not available.

Snow Depth

Station Depth Elevation

Earthquake Activity

City Distance Mag. Time & Date
Minimum magnitude displayed is 2.5.

Coastal Water Temperatures

Place Temperature

Nearby Weather Stations